Time;durP1;ratioP1;P1;durP2;ratioP2;P2;SDS_P1;SDS_P2;PMS_P1;PMS_P2;Temp;Humidity;BMP_temperature;BMP_pressure;BME280_temperature;BME280_humidity;BME280_pressure;Samples;Min_cycle;Max_cycle;Signal;HPM_P1;HPM_P2
2021/09/24 00:01:58;;;;;;;3.80;1.45;;;;;;;22.81;54.66;101526.63;5033778;28;20482;-61
2021/09/24 00:04:28;;;;;;;5.10;1.67;;;;;;;22.81;54.55;101525.78;5030683;28;20061;-61
2021/09/24 00:06:54;;;;;;;4.05;1.70;;;;;;;22.82;54.39;101522.94;5030074;28;20033;-61
2021/09/24 00:09:20;;;;;;;4.90;2.17;;;;;;;22.82;54.42;101519.41;5012967;28;20044;-61
2021/09/24 00:11:45;;;;;;;5.00;1.70;;;;;;;22.82;54.32;101517.59;5030342;28;20084;-61
2021/09/24 00:14:11;;;;;;;3.00;1.30;;;;;;;22.81;54.36;101515.91;5034097;28;20028;-61
2021/09/24 00:16:37;;;;;;;4.55;1.77;;;;;;;22.81;54.29;101505.22;5049850;28;20473;-61
2021/09/24 00:19:03;;;;;;;4.65;1.30;;;;;;;22.82;54.30;101504.22;5049499;28;20499;-61
2021/09/24 00:21:29;;;;;;;5.07;1.30;;;;;;;22.82;54.41;101500.69;5050053;28;20037;-61
2021/09/24 00:23:54;;;;;;;4.57;1.50;;;;;;;22.82;54.58;101500.69;5031669;28;20095;-62
2021/09/24 00:26:20;;;;;;;2.88;1.30;;;;;;;22.81;54.58;101493.69;5050101;28;20048;-61
2021/09/24 00:28:45;;;;;;;2.60;1.30;;;;;;;22.81;54.42;101493.69;5050359;28;20132;-61
2021/09/24 00:31:11;;;;;;;4.28;1.30;;;;;;;22.82;54.47;101490.00;5010995;28;20045;-61
2021/09/24 00:33:36;;;;;;;4.05;1.30;;;;;;;22.81;54.32;101483.81;5028438;28;20370;-61
2021/09/24 00:36:02;;;;;;;5.68;1.52;;;;;;;22.81;54.34;101480.31;5011949;28;20056;-61
2021/09/24 00:38:28;;;;;;;2.33;1.20;;;;;;;22.81;54.34;101480.31;5029307;28;20538;-60
2021/09/24 00:40:53;;;;;;;4.28;1.48;;;;;;;22.80;54.56;101474.16;5029945;28;20033;-60
2021/09/24 00:43:20;;;;;;;3.40;1.30;;;;;;;22.81;54.42;101469.63;5029208;28;20029;-61
2021/09/24 00:45:46;;;;;;;3.25;1.10;;;;;;;22.80;54.71;101465.31;5035518;28;20037;-60
2021/09/24 00:48:11;;;;;;;3.60;1.52;;;;;;;22.81;54.36;101467.78;5047286;28;20443;-61
2021/09/24 00:50:37;;;;;;;2.85;1.40;;;;;;;22.81;54.48;101466.94;5031653;28;20064;-60
2021/09/24 00:53:03;;;;;;;2.65;1.17;;;;;;;22.81;54.28;101461.59;5048317;28;20484;-61
2021/09/24 00:55:29;;;;;;;3.50;1.33;;;;;;;22.81;54.62;101451.72;5049672;28;20043;-60
2021/09/24 00:57:55;;;;;;;3.03;1.48;;;;;;;22.81;54.40;101451.72;5049372;28;20090;-60
2021/09/24 01:00:21;;;;;;;3.67;1.40;;;;;;;22.80;54.48;101458.09;5048740;28;20078;-60
2021/09/24 01:02:47;;;;;;;5.57;1.30;;;;;;;22.80;54.53;101455.44;5048423;28;20131;-60
2021/09/24 01:05:14;;;;;;;3.08;1.35;;;;;;;22.81;54.53;101458.91;5048903;28;20551;-61
2021/09/24 01:07:42;;;;;;;3.50;1.23;;;;;;;22.81;54.17;101450.91;5048473;28;20111;-60
2021/09/24 01:10:09;;;;;;;4.07;1.13;;;;;;;22.80;54.19;101454.59;5048633;28;20071;-61
2021/09/24 01:12:36;;;;;;;3.65;1.20;;;;;;;22.81;54.71;101445.56;5049132;28;20025;-61
2021/09/24 01:15:05;;;;;;;3.30;1.20;;;;;;;22.80;54.28;101435.88;5031125;28;20547;-61
2021/09/24 01:17:31;;;;;;;2.67;1.02;;;;;;;22.80;54.31;101422.50;5048579;28;20041;-60
2021/09/24 01:19:58;;;;;;;3.63;1.23;;;;;;;22.80;54.38;101422.50;5031295;28;20119;-61
2021/09/24 01:22:23;;;;;;;2.85;1.08;;;;;;;22.80;54.36;101419.81;5048431;28;20048;-60
2021/09/24 01:24:49;;;;;;;2.13;1.00;;;;;;;22.79;54.38;101421.69;5049159;28;20587;-60
2021/09/24 01:27:14;;;;;;;3.95;1.17;;;;;;;22.80;54.58;101417.16;5048975;28;20094;-60
2021/09/24 01:29:40;;;;;;;3.28;1.23;;;;;;;22.80;54.55;101422.50;5048972;28;20033;-60
2021/09/24 01:32:06;;;;;;;1.98;1.00;;;;;;;22.79;54.24;101405.63;5029987;28;20044;-61
2021/09/24 01:34:31;;;;;;;2.80;0.95;;;;;;;22.79;54.42;101404.81;5031153;28;20037;-61
2021/09/24 01:36:57;;;;;;;4.57;1.20;;;;;;;22.80;54.40;101411.81;5030681;28;20167;-61
2021/09/24 01:39:23;;;;;;;3.13;1.23;;;;;;;22.79;54.41;101397.59;5048090;28;20087;-60
2021/09/24 01:41:49;;;;;;;2.03;1.05;;;;;;;22.80;54.58;101414.47;5022591;28;20034;-61
2021/09/24 01:44:15;;;;;;;1.98;0.88;;;;;;;22.80;54.69;101406.44;5039191;28;20069;-60
2021/09/24 01:46:42;;;;;;;2.47;1.33;;;;;;;22.79;54.59;101399.47;5049301;28;20473;-60
2021/09/24 01:49:08;;;;;;;2.20;1.05;;;;;;;22.79;54.72;101400.28;5047812;28;20229;-61
2021/09/24 01:51:37;;;;;;;3.33;1.05;;;;;;;22.79;54.60;101399.47;5047692;28;20052;-61
2021/09/24 01:54:04;;;;;;;2.10;1.00;;;;;;;22.80;54.59;101401.09;5047350;28;20044;-61
2021/09/24 01:56:30;;;;;;;3.65;1.13;;;;;;;22.79;54.66;101392.25;5047135;28;20102;-61
2021/09/24 01:58:56;;;;;;;2.35;1.10;;;;;;;22.79;54.40;101394.09;5050229;28;20029;-61
2021/09/24 02:01:21;;;;;;;2.42;0.98;;;;;;;22.79;54.44;101386.09;5050752;28;20047;-60
2021/09/24 02:03:47;;;;;;;2.67;1.10;;;;;;;22.79;54.71;101391.44;5030216;28;20033;-60
2021/09/24 02:06:13;;;;;;;1.17;0.70;;;;;;;22.79;54.76;101383.41;5031594;28;20076;-60
2021/09/24 02:08:38;;;;;;;3.10;1.00;;;;;;;22.79;54.64;101383.41;5031916;28;20096;-61
2021/09/24 02:11:06;;;;;;;1.98;0.90;;;;;;;22.79;54.67;101383.41;5029964;28;20432;-61
2021/09/24 02:13:32;;;;;;;1.83;1.00;;;;;;;22.79;54.55;101384.22;5036637;28;20024;-61
2021/09/24 02:15:57;;;;;;;2.50;1.20;;;;;;;22.78;54.78;101377.22;5052023;28;20409;-61
2021/09/24 02:18:24;;;;;;;1.25;0.80;;;;;;;22.79;54.54;101362.00;5033934;28;20049;-60
2021/09/24 02:20:50;;;;;;;2.95;1.10;;;;;;;22.78;55.08;101363.88;5052503;28;20059;-61
2021/09/24 02:23:15;;;;;;;3.05;1.02;;;;;;;22.79;54.96;101359.34;5034087;28;20135;-60
2021/09/24 02:25:41;;;;;;;2.63;1.00;;;;;;;22.78;54.81;101371.06;5052639;28;20079;-61
2021/09/24 02:28:06;;;;;;;2.10;1.00;;;;;;;22.78;54.72;101361.19;5032995;28;20463;-61
2021/09/24 02:30:31;;;;;;;3.08;0.80;;;;;;;22.79;54.94;101364.69;5033651;28;20124;-60
2021/09/24 02:32:57;;;;;;;0.93;0.70;;;;;;;22.79;55.16;101362.84;5052002;28;20033;-60
2021/09/24 02:35:23;;;;;;;2.63;0.93;;;;;;;22.79;55.05;101365.50;5033748;28;20045;-60
2021/09/24 02:37:48;;;;;;;2.08;1.00;;;;;;;22.79;54.71;101354.81;5051839;28;20036;-61
2021/09/24 02:40:14;;;;;;;1.17;0.70;;;;;;;22.79;54.88;101353.97;5033959;28;20041;-60
2021/09/24 02:42:39;;;;;;;3.00;1.08;;;;;;;22.79;55.04;101356.66;5051210;28;20061;-61
2021/09/24 02:45:05;;;;;;;2.03;1.02;;;;;;;22.80;55.05;101358.31;5051407;28;20040;-61
2021/09/24 02:47:31;;;;;;;1.83;1.00;;;;;;;22.79;55.08;101352.13;5051396;28;20116;-60
2021/09/24 02:49:56;;;;;;;3.47;1.10;;;;;;;22.78;55.11;101355.84;5051497;28;20131;-61
2021/09/24 02:52:22;;;;;;;1.88;0.88;;;;;;;22.78;55.13;101341.63;5051419;28;20029;-61
2021/09/24 02:54:47;;;;;;;1.50;0.80;;;;;;;22.79;55.00;101335.25;5033853;28;20036;-61
2021/09/24 02:57:13;;;;;;;2.80;0.82;;;;;;;22.79;55.26;101337.94;5050439;28;20476;-61
2021/09/24 02:59:38;;;;;;;2.28;0.93;;;;;;;22.78;55.29;101331.75;5051359;28;20556;-60
2021/09/24 03:02:04;;;;;;;1.98;0.90;;;;;;;22.78;55.14;101330.94;5034485;28;20182;-61
2021/09/24 03:04:29;;;;;;;1.85;0.90;;;;;;;22.77;55.26;101332.78;5031451;28;20405;-60
2021/09/24 03:06:55;;;;;;;1.58;1.02;;;;;;;22.78;55.25;101344.31;5013644;28;20037;-61
2021/09/24 03:09:20;;;;;;;2.45;1.10;;;;;;;22.78;55.11;101349.66;5030957;28;20064;-60
2021/09/24 03:11:46;;;;;;;1.60;0.90;;;;;;;22.78;55.29;101341.63;5030676;28;20045;-61
2021/09/24 03:14:12;;;;;;;2.20;1.05;;;;;;;22.79;55.23;101340.63;5013149;28;20046;-61
2021/09/24 03:16:37;;;;;;;1.55;0.90;;;;;;;22.79;55.46;101345.97;5030879;28;20048;-60
2021/09/24 03:19:04;;;;;;;2.53;1.02;;;;;;;22.78;55.17;101331.75;5031198;28;20037;-61
2021/09/24 03:21:30;;;;;;;2.58;0.90;;;;;;;22.79;55.09;101333.41;5013315;28;20492;-60
2021/09/24 03:23:56;;;;;;;3.08;1.00;;;;;;;22.78;55.40;101336.28;4997235;28;20038;-61
2021/09/24 03:26:22;;;;;;;2.15;1.10;;;;;;;22.78;55.56;101339.78;5030176;28;20052;-61
2021/09/24 03:28:48;;;;;;;2.78;1.10;;;;;;;22.77;55.33;101332.78;5031384;28;20041;-60
2021/09/24 03:31:15;;;;;;;2.00;1.00;;;;;;;22.78;55.50;101336.28;5030529;28;20338;-60
2021/09/24 03:33:41;;;;;;;1.63;0.85;;;;;;;22.77;55.48;101330.13;5031049;28;20039;-61
2021/09/24 03:36:07;;;;;;;2.30;0.90;;;;;;;22.78;55.66;101330.94;5012674;28;20147;-61
2021/09/24 03:38:32;;;;;;;1.65;0.88;;;;;;;22.77;55.48;101327.44;5030642;28;20585;-60
2021/09/24 03:40:58;;;;;;;1.48;0.82;;;;;;;22.77;55.72;101318.59;5030522;28;20099;-61
2021/09/24 03:43:23;;;;;;;2.22;0.85;;;;;;;22.77;55.56;101321.28;5012371;28;20524;-61
2021/09/24 03:45:49;;;;;;;1.63;0.82;;;;;;;22.77;55.63;101319.41;5013161;28;20560;-61
2021/09/24 03:48:15;;;;;;;0.95;0.80;;;;;;;22.78;55.55;101320.25;5004004;28;22063;-61
2021/09/24 03:50:40;;;;;;;2.05;0.82;;;;;;;22.77;55.65;101327.44;4994094;28;20041;-60
2021/09/24 03:53:06;;;;;;;2.42;1.00;;;;;;;22.77;55.59;101323.94;5028026;28;20042;-61
2021/09/24 03:55:31;;;;;;;1.30;0.90;;;;;;;22.77;55.66;101315.94;5030598;28;20167;-61
2021/09/24 03:57:57;;;;;;;1.27;0.90;;;;;;;22.76;55.37;101317.78;5029887;28;20037;-61
2021/09/24 04:00:22;;;;;;;1.08;0.77;;;;;;;22.76;55.67;101309.75;5012824;28;20037;-60
2021/09/24 04:02:48;;;;;;;1.77;0.80;;;;;;;22.78;55.49;101314.91;5030397;28;20807;-60
2021/09/24 04:05:14;;;;;;;2.17;1.00;;;;;;;22.77;55.64;101306.03;5030004;28;20033;-61
2021/09/24 04:07:40;;;;;;;2.20;0.95;;;;;;;22.78;55.79;101298.84;5030034;28;20037;-60
2021/09/24 04:10:06;;;;;;;2.10;0.90;;;;;;;22.77;55.83;101286.50;5035077;28;20059;-61
2021/09/24 04:12:31;;;;;;;1.30;0.90;;;;;;;22.77;55.66;101283.81;5048915;28;20036;-61
2021/09/24 04:14:57;;;;;;;1.30;0.90;;;;;;;22.78;55.92;101288.16;5050153;28;20036;-60
2021/09/24 04:17:22;;;;;;;2.13;1.10;;;;;;;22.76;55.89;101282.19;5031887;28;20033;-61
2021/09/24 04:19:47;;;;;;;1.42;0.93;;;;;;;22.77;55.68;101289.19;5049621;28;20045;-60
2021/09/24 04:22:13;;;;;;;1.10;0.70;;;;;;;22.77;56.17;101289.19;5016759;28;20093;-61
2021/09/24 04:24:38;;;;;;;2.25;0.85;;;;;;;22.77;55.73;101294.53;5010798;28;20045;-60
2021/09/24 04:27:05;;;;;;;1.70;0.70;;;;;;;22.76;55.91;101288.34;5007975;28;20508;-60
2021/09/24 04:29:30;;;;;;;1.23;0.80;;;;;;;22.76;55.87;101291.03;5010137;28;20112;-61
2021/09/24 04:31:56;;;;;;;1.75;0.90;;;;;;;22.76;55.86;101296.38;5033395;28;20049;-60
2021/09/24 04:34:21;;;;;;;2.00;0.80;;;;;;;22.77;56.17;101289.19;5049651;28;20037;-60
2021/09/24 04:36:47;;;;;;;1.13;0.75;;;;;;;22.77;56.02;101297.19;5049498;28;20037;-61
2021/09/24 04:39:12;;;;;;;2.08;0.90;;;;;;;22.77;55.98;101289.19;5031453;28;20502;-60
2021/09/24 04:41:38;;;;;;;2.05;0.90;;;;;;;22.76;56.10;101292.88;5049017;28;20053;-60
2021/09/24 04:44:04;;;;;;;2.38;0.90;;;;;;;22.76;55.94;101284.84;5049916;28;20045;-60
2021/09/24 04:46:29;;;;;;;1.20;0.70;;;;;;;22.77;55.94;101281.16;5030582;28;20140;-61
2021/09/24 04:48:55;;;;;;;0.93;0.70;;;;;;;22.76;56.11;101288.34;5032032;28;20125;-61
2021/09/24 04:51:21;;;;;;;1.13;0.80;;;;;;;22.77;56.14;101291.84;5031141;28;20036;-61
2021/09/24 04:53:46;;;;;;;1.00;0.70;;;;;;;22.77;56.33;101291.84;5014805;28;20095;-61
2021/09/24 04:56:12;;;;;;;2.03;0.90;;;;;;;22.76;56.25;101279.50;5048259;28;20029;-61
2021/09/24 04:58:37;;;;;;;1.15;0.90;;;;;;;22.76;56.20;101283.00;5015301;28;20100;-60
2021/09/24 05:01:02;;;;;;;1.52;0.90;;;;;;;22.76;56.39;101280.34;5029343;28;20448;-61
2021/09/24 05:03:28;;;;;;;1.42;0.90;;;;;;;22.76;56.14;101274.97;5049150;28;20052;-61
2021/09/24 05:05:53;;;;;;;2.08;1.00;;;;;;;22.76;56.07;101268.81;5031938;28;20036;-61
2021/09/24 05:08:19;;;;;;;1.23;0.90;;;;;;;22.76;56.26;101266.13;5049037;28;20183;-60
2021/09/24 05:10:44;;;;;;;1.85;0.80;;;;;;;22.75;56.18;101265.31;5031290;28;20386;-61
2021/09/24 05:13:10;;;;;;;1.05;0.85;;;;;;;22.76;56.06;101271.50;5048232;28;20114;-60
2021/09/24 05:15:35;;;;;;;2.55;0.82;;;;;;;22.76;56.32;101260.78;5008630;28;20042;-61
2021/09/24 05:18:01;;;;;;;1.50;0.90;;;;;;;22.76;56.26;101258.13;5009604;28;20041;-60
2021/09/24 05:20:27;;;;;;;1.38;0.80;;;;;;;22.76;56.22;101255.44;5009562;28;20867;-60
2021/09/24 05:22:57;;;;;;;1.20;0.80;;;;;;;22.76;56.26;101252.75;5009517;28;20048;-61
2021/09/24 05:25:22;;;;;;;1.45;0.77;;;;;;;22.76;56.55;101253.59;5009355;28;20036;-61
2021/09/24 05:27:49;;;;;;;1.90;1.00;;;;;;;22.76;56.40;101248.22;5008331;28;20030;-61
2021/09/24 05:30:15;;;;;;;1.23;0.80;;;;;;;22.77;56.48;101243.72;5008942;28;20041;-61
2021/09/24 05:32:40;;;;;;;1.40;0.80;;;;;;;22.76;56.40;101234.88;5010917;28;20489;-60
2021/09/24 05:35:08;;;;;;;2.22;0.70;;;;;;;22.76;56.19;101239.38;5031012;28;20033;-60
2021/09/24 05:37:33;;;;;;;2.33;1.00;;;;;;;22.76;56.44;101234.03;5032514;28;20045;-60
2021/09/24 05:39:59;;;;;;;2.58;0.88;;;;;;;22.75;56.48;101227.88;5040596;28;20041;-60
2021/09/24 05:42:24;;;;;;;2.88;0.70;;;;;;;22.75;57.05;101235.91;5052239;28;20051;-61
2021/09/24 05:44:50;;;;;;;2.75;1.02;;;;;;;22.76;57.26;101234.88;5001346;28;20050;-61
2021/09/24 05:47:15;;;;;;;1.13;0.80;;;;;;;22.76;57.26;101232.19;5032355;28;20040;-60
2021/09/24 05:49:41;;;;;;;3.38;0.82;;;;;;;22.76;57.45;101234.88;5030163;28;20055;-64
2021/09/24 05:52:06;;;;;;;2.22;0.82;;;;;;;22.76;57.54;101224.16;5011783;28;20045;-61
2021/09/24 05:54:32;;;;;;;1.17;0.80;;;;;;;22.77;57.69;101216.97;5014723;28;20760;-61
2021/09/24 05:56:57;;;;;;;2.35;0.80;;;;;;;22.77;57.83;101220.47;5028696;28;20151;-61
2021/09/24 05:59:23;;;;;;;2.10;0.80;;;;;;;22.77;57.90;101223.13;5029613;28;20049;-61
2021/09/24 06:01:50;;;;;;;2.25;0.93;;;;;;;22.77;58.19;101219.63;5007353;28;20396;-61
2021/09/24 06:04:16;;;;;;;1.85;0.68;;;;;;;22.78;58.22;101215.94;5008210;28;20041;-61
2021/09/24 06:06:42;;;;;;;5.43;1.10;;;;;;;22.77;57.99;101219.63;5009645;28;20033;-61
2021/09/24 06:09:08;;;;;;;1.95;0.80;;;;;;;22.77;58.29;101219.63;5030746;28;20048;-61
2021/09/24 06:11:34;;;;;;;2.22;1.00;;;;;;;22.76;58.07;101218.81;5047628;28;20052;-61
2021/09/24 06:13:59;;;;;;;1.70;0.70;;;;;;;22.76;58.00;101213.47;5048322;28;20461;-61
2021/09/24 06:16:25;;;;;;;2.55;1.00;;;;;;;22.76;58.15;101216.13;5049119;28;20417;-61
2021/09/24 06:18:51;;;;;;;2.97;0.93;;;;;;;22.77;58.25;101227.66;5049119;28;20104;-61
2021/09/24 06:21:18;;;;;;;3.05;1.17;;;;;;;22.76;58.22;101218.81;5048840;28;20033;-61
2021/09/24 06:23:44;;;;;;;2.55;0.80;;;;;;;22.76;58.09;101228.69;5049078;28;20071;-60
2021/09/24 06:26:10;;;;;;;0.75;0.50;;;;;;;22.76;58.41;101229.50;5034614;28;20060;-63
2021/09/24 06:28:36;;;;;;;2.72;1.10;;;;;;;22.76;58.24;101232.19;5011444;28;20030;-63
2021/09/24 06:31:01;;;;;;;1.20;0.82;;;;;;;22.76;58.52;101234.03;5011378;28;20048;-61
2021/09/24 06:33:27;;;;;;;1.98;0.65;;;;;;;22.76;58.15;101240.22;5029109;28;20045;-61
2021/09/24 06:35:52;;;;;;;3.88;1.05;;;;;;;22.75;58.28;101237.75;5011406;28;20052;-61
2021/09/24 06:38:18;;;;;;;1.98;0.90;;;;;;;22.76;58.21;101226.00;5010490;28;20048;-61
2021/09/24 06:40:44;;;;;;;2.35;0.95;;;;;;;22.75;58.65;101240.41;5029084;28;20369;-61
2021/09/24 06:43:10;;;;;;;2.45;0.90;;;;;;;22.76;58.55;101242.88;5037142;28;20095;-61
2021/09/24 06:45:36;;;;;;;1.70;0.80;;;;;;;22.76;58.41;101242.06;5030646;28;20497;-61
2021/09/24 06:48:02;;;;;;;2.58;0.82;;;;;;;22.76;58.52;101239.38;5030412;28;20037;-61
2021/09/24 06:50:28;;;;;;;2.45;0.60;;;;;;;22.75;58.39;101241.25;5047903;28;20118;-61
2021/09/24 06:52:53;;;;;;;2.72;0.80;;;;;;;22.75;58.39;101254.63;5030535;28;20472;-61
2021/09/24 06:55:25;;;;;;;1.40;0.95;;;;;;;22.74;58.38;101246.81;5013814;28;20032;-61
2021/09/24 06:57:54;;;;;;;4.57;1.17;;;;;;;22.76;58.42;101258.94;5047618;28;20068;-61
2021/09/24 07:00:20;;;;;;;2.05;0.75;;;;;;;22.76;58.10;101253.59;5036928;28;20079;-61
2021/09/24 07:02:46;;;;;;;2.10;0.80;;;;;;;22.76;58.38;101250.09;5041258;28;20064;-61
2021/09/24 07:05:12;;;;;;;1.65;0.90;;;;;;;22.76;58.38;101250.09;5048258;28;20061;-61
2021/09/24 07:07:38;;;;;;;2.63;1.10;;;;;;;22.76;58.23;101253.59;5047952;28;20885;-61
2021/09/24 07:10:04;;;;;;;2.05;0.82;;;;;;;22.75;58.27;101259.16;5047955;28;20120;-61
2021/09/24 07:12:30;;;;;;;6.45;1.00;;;;;;;22.76;58.50;101255.44;5047940;28;20132;-61
2021/09/24 07:14:55;;;;;;;2.47;0.98;;;;;;;22.75;58.67;101243.91;5049532;28;20027;-61
2021/09/24 07:17:21;;;;;;;4.65;1.02;;;;;;;22.76;58.67;101258.13;5035236;28;20512;-61
2021/09/24 07:19:47;;;;;;;2.42;0.93;;;;;;;22.76;58.72;101252.75;5013344;28;20407;-61
2021/09/24 07:22:12;;;;;;;3.28;0.90;;;;;;;22.76;59.01;101266.97;5011082;28;20041;-61
2021/09/24 07:24:38;;;;;;;6.22;1.20;;;;;;;22.76;58.84;101255.44;4991997;28;20677;-62
2021/09/24 07:27:04;;;;;;;3.08;1.10;;;;;;;22.76;59.20;101256.25;5006873;28;20064;-63
2021/09/24 07:29:30;;;;;;;4.55;1.23;;;;;;;22.77;59.40;101251.72;5023375;28;21009;-62
2021/09/24 07:31:55;;;;;;;4.35;1.17;;;;;;;22.75;59.49;101243.09;5012396;28;20478;-61
2021/09/24 07:34:21;;;;;;;5.20;1.23;;;;;;;22.75;59.71;101253.78;5035107;28;20091;-61
2021/09/24 07:36:47;;;;;;;3.10;1.00;;;;;;;22.73;59.82;101245.97;5011301;28;20057;-62
2021/09/24 07:39:12;;;;;;;5.00;1.35;;;;;;;22.73;59.81;101248.66;4989257;28;20282;-61
2021/09/24 07:41:38;;;;;;;6.30;1.30;;;;;;;22.73;59.99;101245.97;5014899;28;20040;-62
2021/09/24 07:44:05;;;;;;;3.78;1.30;;;;;;;22.72;60.19;101249.66;5010385;28;20038;-62
2021/09/24 07:46:32;;;;;;;5.43;1.20;;;;;;;22.72;60.18;101255.00;5039484;28;20044;-62
2021/09/24 07:48:58;;;;;;;3.38;0.95;;;;;;;22.71;60.61;101243.47;5045954;28;20128;-62
2021/09/24 07:51:24;;;;;;;6.82;1.35;;;;;;;22.72;60.42;101244.31;5012593;28;20036;-62
2021/09/24 07:53:49;;;;;;;5.88;1.40;;;;;;;22.74;60.87;101246.81;5037998;28;20523;-62
2021/09/24 07:56:15;;;;;;;4.85;1.50;;;;;;;22.71;60.75;101250.69;5029349;28;20473;-62
2021/09/24 07:58:41;;;;;;;10.68;1.88;;;;;;;22.71;60.86;101240.81;5048961;28;20048;-62
2021/09/24 08:01:08;;;;;;;7.88;1.65;;;;;;;22.71;60.92;101240.81;5019719;28;20412;-62
2021/09/24 08:03:34;;;;;;;5.78;1.80;;;;;;;22.73;61.03;101237.97;4992279;28;20448;-62
2021/09/24 08:06:00;;;;;;;7.30;1.42;;;;;;;22.71;60.93;101240.81;4991591;28;20041;-62
2021/09/24 08:08:26;;;;;;;6.18;1.50;;;;;;;22.71;61.16;101237.31;5009677;28;20096;-61
2021/09/24 08:10:52;;;;;;;4.45;1.60;;;;;;;22.70;61.13;101244.53;5008255;28;20057;-61
2021/09/24 08:13:17;;;;;;;4.90;1.50;;;;;;;22.71;61.14;101248.00;5008944;28;20026;-62
2021/09/24 08:15:43;;;;;;;5.65;1.63;;;;;;;22.71;61.13;101253.38;5009659;28;20428;-62
2021/09/24 08:18:10;;;;;;;6.15;1.50;;;;;;;22.70;61.33;101263.25;5010036;28;20386;-61
2021/09/24 08:20:36;;;;;;;8.80;1.75;;;;;;;22.70;61.50;101252.53;5010447;28;20111;-62
2021/09/24 08:23:02;;;;;;;4.68;1.50;;;;;;;22.71;61.23;101253.38;5010513;28;20469;-63
2021/09/24 08:25:28;;;;;;;3.80;1.45;;;;;;;22.72;61.46;101255.00;5010793;28;20125;-63
2021/09/24 08:27:53;;;;;;;4.78;1.50;;;;;;;22.70;61.26;101247.19;5009585;28;20118;-62
2021/09/24 08:30:22;;;;;;;3.38;1.30;;;;;;;22.71;61.38;101248.84;5010342;28;20197;-62
2021/09/24 08:32:48;;;;;;;5.47;1.40;;;;;;;22.73;61.21;101245.16;5010031;28;20135;-63
2021/09/24 08:35:14;;;;;;;4.07;1.15;;;;;;;22.73;61.25;101245.16;5010525;28;20072;-62
2021/09/24 08:37:42;;;;;;;7.15;1.30;;;;;;;22.74;61.29;101244.94;5009944;28;20080;-63
2021/09/24 08:40:10;;;;;;;3.78;1.40;;;;;;;22.73;61.18;101248.66;5010452;28;20069;-62
2021/09/24 08:42:40;;;;;;;5.50;1.30;;;;;;;22.73;61.41;101237.97;5009217;28;20036;-63
2021/09/24 08:45:15;;;;;;;5.05;1.40;;;;;;;22.74;61.34;101250.31;5010182;28;20489;-63
2021/09/24 08:47:40;;;;;;;4.78;1.25;;;;;;;22.74;61.31;101241.44;5009919;28;20038;-63
2021/09/24 08:50:08;;;;;;;2.00;0.98;;;;;;;22.76;61.42;101250.09;5010282;28;20057;-63
2021/09/24 08:52:35;;;;;;;2.70;1.15;;;;;;;22.75;61.50;101243.09;5008445;28;20038;-62
2021/09/24 08:55:01;;;;;;;3.28;1.20;;;;;;;22.76;61.66;101247.41;5008772;28;20038;-63
2021/09/24 08:57:26;;;;;;;4.65;1.23;;;;;;;22.77;61.67;101246.38;5009395;28;20044;-63
2021/09/24 08:59:52;;;;;;;5.07;1.30;;;;;;;22.76;61.84;101248.22;5010578;28;20431;-63
2021/09/24 09:02:18;;;;;;;2.55;0.98;;;;;;;22.76;61.30;101248.22;5027877;28;20541;-63
2021/09/24 09:04:46;;;;;;;2.80;1.13;;;;;;;22.78;61.57;101248.03;5029464;28;20116;-63
2021/09/24 09:07:14;;;;;;;2.08;1.10;;;;;;;22.78;61.44;101248.84;5028977;28;20401;-62
2021/09/24 09:09:46;;;;;;;2.80;0.90;;;;;;;22.77;61.57;101254.41;5011323;28;20033;-63
2021/09/24 09:12:14;;;;;;;3.47;0.90;;;;;;;22.79;61.48;101260.38;5028760;28;20079;-63
2021/09/24 09:14:40;;;;;;;3.25;1.27;;;;;;;22.79;61.67;101255.03;5029359;28;20046;-63
2021/09/24 09:17:47;;;;;;;1.42;0.73;;;;;;;22.72;61.88;101257.69;5029454;28;20033;-63
2021/09/24 09:20:24;;;;;;;2.05;0.73;;;;;;;22.77;61.63;101263.25;4929807;29;20070;-63
2021/09/24 09:23:04;;;;;;;1.40;0.80;;;;;;;22.80;61.65;101262.84;4929170;29;20031;-63
2021/09/24 09:25:32;;;;;;;1.45;0.70;;;;;;;22.80;61.70;101268.19;4995273;28;20049;-63
2021/09/24 09:28:04;;;;;;;2.60;0.88;;;;;;;22.79;61.60;101255.84;5028409;28;20343;-62
2021/09/24 09:30:31;;;;;;;1.73;0.70;;;;;;;22.80;61.73;101256.66;5029888;28;20035;-63
2021/09/24 09:33:17;;;;;;;2.35;1.10;;;;;;;22.78;61.36;101266.75;5029030;28;20113;-63
2021/09/24 09:35:54;;;;;;;3.17;0.90;;;;;;;22.78;61.58;101250.69;5029337;28;20061;-63
2021/09/24 09:38:25;;;;;;;3.22;0.88;;;;;;;22.79;61.44;101247.00;5029418;28;20033;-62
2021/09/24 09:41:13;;;;;;;1.25;0.68;;;;;;;22.75;61.68;101249.25;5029092;28;20517;-62
2021/09/24 09:43:47;;;;;;;1.67;0.70;;;;;;;22.78;61.40;101256.06;5029296;28;20057;-62
2021/09/24 09:46:22;;;;;;;1.63;0.80;;;;;;;22.77;61.14;101263.25;5028940;28;20052;-63
2021/09/24 09:49:12;;;;;;;2.38;0.80;;;;;;;22.73;61.52;101256.69;5029202;28;20034;-63
2021/09/24 09:51:43;;;;;;;4.43;1.15;;;;;;;22.76;61.53;101264.28;5028969;28;20064;-62
2021/09/24 09:54:12;;;;;;;2.45;0.80;;;;;;;22.77;61.30;101255.22;5029300;28;20041;-63
2021/09/24 09:56:40;;;;;;;1.13;0.70;;;;;;;22.76;61.59;101271.50;5028052;28;20110;-63
2021/09/24 09:59:32;;;;;;;1.52;0.70;;;;;;;22.69;61.63;101261.59;5011536;28;20041;-62
2021/09/24 10:02:14;;;;;;;1.33;0.80;;;;;;;22.68;61.45;101265.31;5044571;28;20326;-62
2021/09/24 10:04:42;;;;;;;2.97;0.80;;;;;;;22.74;61.55;101266.34;5030911;28;20029;-63
2021/09/24 10:07:14;;;;;;;2.25;0.65;;;;;;;22.74;61.49;101270.88;5030818;28;20037;-62
2021/09/24 10:09:40;;;;;;;1.73;0.88;;;;;;;22.75;61.71;101261.81;5046847;28;20037;-63
2021/09/24 10:12:23;;;;;;;2.08;0.80;;;;;;;22.68;61.52;101259.13;5027976;28;20044;-62
2021/09/24 10:14:51;;;;;;;3.63;0.77;;;;;;;22.72;61.15;101255.00;5028693;28;20149;-62
2021/09/24 10:17:18;;;;;;;1.58;0.70;;;;;;;22.73;61.53;101258.53;5010658;28;20361;-63
2021/09/24 10:19:45;;;;;;;3.38;0.70;;;;;;;22.75;61.45;101259.16;5031695;28;20163;-63
2021/09/24 10:22:12;;;;;;;2.95;0.90;;;;;;;22.73;61.29;101245.97;5032203;28;20065;-62
2021/09/24 10:24:38;;;;;;;2.45;1.00;;;;;;;22.75;61.45;101248.44;5032233;28;20143;-63
2021/09/24 10:27:07;;;;;;;2.22;0.90;;;;;;;22.73;61.48;101248.66;5031455;28;20037;-65
2021/09/24 10:29:36;;;;;;;1.52;0.85;;;;;;;22.72;61.70;101249.66;5032314;28;20485;-63
2021/09/24 10:32:23;;;;;;;1.67;0.80;;;;;;;22.69;61.60;101248.22;5032075;28;20057;-63
2021/09/24 10:35:04;;;;;;;2.70;0.80;;;;;;;22.73;61.88;101261.22;5032165;28;20495;-63
2021/09/24 10:37:33;;;;;;;1.92;0.80;;;;;;;22.74;61.63;101263.66;5031886;28;20073;-62
2021/09/24 10:40:02;;;;;;;1.77;0.75;;;;;;;22.74;61.77;101254.81;5032054;28;20029;-63
2021/09/24 10:42:40;;;;;;;1.98;0.73;;;;;;;22.73;61.85;101256.69;5030668;28;20040;-63
2021/09/24 10:45:14;;;;;;;1.95;0.77;;;;;;;22.72;62.08;101255.00;5032218;28;20033;-62
2021/09/24 10:47:50;;;;;;;3.35;1.10;;;;;;;22.69;61.71;101264.28;5031425;28;20378;-63
2021/09/24 10:50:34;;;;;;;2.45;0.88;;;;;;;22.67;61.91;101239.59;5031811;28;20485;-62
2021/09/24 10:53:19;;;;;;;3.35;0.85;;;;;;;22.70;61.78;101235.66;5031644;28;20029;-62
2021/09/24 10:55:52;;;;;;;3.92;1.00;;;;;;;22.71;61.49;101238.13;5031657;28;20033;-63
2021/09/24 10:58:26;;;;;;;3.58;1.13;;;;;;;22.70;61.86;101241.84;5013204;28;20091;-63
2021/09/24 11:00:53;;;;;;;;;;;;;;;22.62;61.85;101231.38;5038713;28;20029;-62
2021/09/24 11:03:22;;;;;;;4.65;1.10;;;;;;;22.73;61.65;101231.78;5051486;28;20287;-62
2021/09/24 11:06:08;;;;;;;3.30;1.02;;;;;;;22.68;61.68;101230.53;5051447;28;20036;-62
2021/09/24 11:08:33;;;;;;;1.67;0.90;;;;;;;22.73;61.47;101235.28;5051646;28;20060;-63
2021/09/24 11:11:22;;;;;;;3.78;1.00;;;;;;;22.68;61.68;101233.22;5038604;28;20116;-63
2021/09/24 11:13:53;;;;;;;2.50;0.88;;;;;;;22.71;61.83;101223.94;5031474;28;20028;-62
2021/09/24 11:16:25;;;;;;;1.85;0.90;;;;;;;22.71;61.71;101219.41;5031313;28;20030;-63
2021/09/24 11:18:52;;;;;;;2.25;0.70;;;;;;;22.73;61.57;101213.06;5031346;28;20109;-62
2021/09/24 11:21:24;;;;;;;1.75;0.88;;;;;;;22.73;61.68;101218.41;5013238;28;20477;-62
2021/09/24 11:23:54;;;;;;;1.95;0.73;;;;;;;22.73;62.02;101211.22;5030863;28;20029;-63
2021/09/24 11:26:25;;;;;;;3.00;1.00;;;;;;;22.76;61.65;101213.47;5030620;28;20056;-62